Veurne, Belgium
Current Conditions -  °F | °C
As of 8:55 AM on Sunday 26 Oct 2014 (Local Time) from EBFN Reporting Station
Broken Clouds Broken Clouds  
Wind Chill: 12°   Ceiling: 4000
Heat Index: 12°   Visibility: 6mi
Dew Point: 10°   Wind: 8mph
Humidity: 88%   Direction: 210°SSW
Pressure: 30.24"   Gusts: NA
Location:  51.07°N, 2.66°E
Report Text: EBFN 260655Z 21007KT 9999 FEW035 BKN040 12/10 Q1024 BLU
Loading
Personal Weather Stations






























Interactive Weather Map
Tropical Storm Tracking
New forecast layout! Learn more

10-Day Weather Forecast

Advertisements
Track Severe Weather on mobile